sensor_id;sensor_type;location;lat;lon;timestamp;pressure;altitude;pressure_sealevel;temperature
24201;BMP280;2801;50.972;7.856;2023-05-16T00:00:40;97413.94;;;13.10
24201;BMP280;2801;50.972;7.856;2023-05-16T00:03:07;97414.72;;;13.10
24201;BMP280;2801;50.972;7.856;2023-05-16T00:05:36;97418.53;;;13.09
24201;BMP280;2801;50.972;7.856;2023-05-16T00:08:03;97408.66;;;13.13
24201;BMP280;2801;50.972;7.856;2023-05-16T00:10:31;97418.19;;;13.11
24201;BMP280;2801;50.972;7.856;2023-05-16T00:12:58;97412.81;;;13.11
24201;BMP280;2801;50.972;7.856;2023-05-16T00:15:28;97416.63;;;13.10
24201;BMP280;2801;50.972;7.856;2023-05-16T00:17:56;97413.84;;;13.06
24201;BMP280;2801;50.972;7.856;2023-05-16T00:20:26;97405.22;;;13.01
24201;BMP280;2801;50.972;7.856;2023-05-16T00:22:54;97415.03;;;12.97
24201;BMP280;2801;50.972;7.856;2023-05-16T00:25:22;97414.16;;;12.93
24201;BMP280;2801;50.972;7.856;2023-05-16T00:27:49;97403.19;;;12.86
24201;BMP280;2801;50.972;7.856;2023-05-16T00:30:16;97414.50;;;12.91
24201;BMP280;2801;50.972;7.856;2023-05-16T00:32:43;97405.88;;;12.86
24201;BMP280;2801;50.972;7.856;2023-05-16T00:35:10;97418.22;;;12.87
24201;BMP280;2801;50.972;7.856;2023-05-16T00:37:38;97413.97;;;12.86
24201;BMP280;2801;50.972;7.856;2023-05-16T00:40:05;97416.66;;;12.86
24201;BMP280;2801;50.972;7.856;2023-05-16T00:42:33;97416.19;;;12.84
24201;BMP280;2801;50.972;7.856;2023-05-16T00:45:00;97410.59;;;12.77
24201;BMP280;2801;50.972;7.856;2023-05-16T00:47:27;97411.25;;;12.74
24201;BMP280;2801;50.972;7.856;2023-05-16T00:49:54;97409.25;;;12.71
24201;BMP280;2801;50.972;7.856;2023-05-16T00:52:21;97409.81;;;12.64
24201;BMP280;2801;50.972;7.856;2023-05-16T00:54:50;97414.75;;;12.62
24201;BMP280;2801;50.972;7.856;2023-05-16T00:57:18;97415.50;;;12.63
24201;BMP280;2801;50.972;7.856;2023-05-16T00:59:46;97411.28;;;12.62
24201;BMP280;2801;50.972;7.856;2023-05-16T01:02:13;97404.66;;;12.59
24201;BMP280;2801;50.972;7.856;2023-05-16T01:04:42;97412.72;;;12.59
24201;BMP280;2801;50.972;7.856;2023-05-16T01:07:10;97412.41;;;12.61
24201;BMP280;2801;50.972;7.856;2023-05-16T01:09:37;97405.31;;;12.56
24201;BMP280;2801;50.972;7.856;2023-05-16T01:12:33;97411.16;;;12.58
24201;BMP280;2801;50.972;7.856;2023-05-16T01:15:12;97411.28;;;12.62
24201;BMP280;2801;50.972;7.856;2023-05-16T01:24:03;97399.84;;;12.53
24201;BMP280;2801;50.972;7.856;2023-05-16T01:26:34;97404.66;;;12.59
24201;BMP280;2801;50.972;7.856;2023-05-16T01:29:02;97392.00;;;12.60
24201;BMP280;2801;50.972;7.856;2023-05-16T01:31:29;97401.97;;;12.59
24201;BMP280;2801;50.972;7.856;2023-05-16T01:33:56;97403.88;;;12.59
24201;BMP280;2801;50.972;7.856;2023-05-16T01:36:32;97410.59;;;12.53
24201;BMP280;2801;50.972;7.856;2023-05-16T01:39:38;97412.41;;;12.37
24201;BMP280;2801;50.972;7.856;2023-05-16T01:42:08;97418.22;;;12.39
24201;BMP280;2801;50.972;7.856;2023-05-16T01:45:03;97422.69;;;12.23
24201;BMP280;2801;50.972;7.856;2023-05-16T01:47:34;97425.69;;;12.09
24201;BMP280;2801;50.972;7.856;2023-05-16T01:50:14;97435.63;;;11.97
24201;BMP280;2801;50.972;7.856;2023-05-16T01:52:56;97436.34;;;11.85
24201;BMP280;2801;50.972;7.856;2023-05-16T01:55:46;97434.09;;;11.75
24201;BMP280;2801;50.972;7.856;2023-05-16T01:58:15;97447.81;;;11.62
24201;BMP280;2801;50.972;7.856;2023-05-16T02:00:42;97442.34;;;11.50
24201;BMP280;2801;50.972;7.856;2023-05-16T02:03:10;97449.03;;;11.44
24201;BMP280;2801;50.972;7.856;2023-05-16T02:05:38;97452.97;;;11.46
24201;BMP280;2801;50.972;7.856;2023-05-16T02:08:05;97453.50;;;11.40
24201;BMP280;2801;50.972;7.856;2023-05-16T02:10:32;97458.59;;;11.32
24201;BMP280;2801;50.972;7.856;2023-05-16T02:12:59;97456.56;;;11.29
24201;BMP280;2801;50.972;7.856;2023-05-16T02:15:26;97455.13;;;11.32
24201;BMP280;2801;50.972;7.856;2023-05-16T02:17:54;97461.34;;;11.24
24201;BMP280;2801;50.972;7.856;2023-05-16T02:20:21;97454.25;;;11.19
24201;BMP280;2801;50.972;7.856;2023-05-16T02:22:48;97453.34;;;11.15
24201;BMP280;2801;50.972;7.856;2023-05-16T02:25:15;97459.97;;;11.18
24201;BMP280;2801;50.972;7.856;2023-05-16T02:27:42;97459.81;;;11.14
24201;BMP280;2801;50.972;7.856;2023-05-16T02:30:10;97459.06;;;11.14
24201;BMP280;2801;50.972;7.856;2023-05-16T02:32:40;97460.16;;;11.13
24201;BMP280;2801;50.972;7.856;2023-05-16T02:35:11;97462.72;;;11.09
24201;BMP280;2801;50.972;7.856;2023-05-16T02:37:41;97467.09;;;11.14
24201;BMP280;2801;50.972;7.856;2023-05-16T02:40:08;97474.34;;;11.13
24201;BMP280;2801;50.972;7.856;2023-05-16T02:42:36;97469.69;;;11.02
24201;BMP280;2801;50.972;7.856;2023-05-16T02:45:03;97466.22;;;11.01
24201;BMP280;2801;50.972;7.856;2023-05-16T02:47:30;97471.44;;;10.98
24201;BMP280;2801;50.972;7.856;2023-05-16T02:49:57;97480.28;;;10.98
24201;BMP280;2801;50.972;7.856;2023-05-16T02:52:24;97479.97;;;11.00
24201;BMP280;2801;50.972;7.856;2023-05-16T02:54:51;97479.97;;;11.00
24201;BMP280;2801;50.972;7.856;2023-05-16T02:57:35;97485.13;;;11.05
24201;BMP280;2801;50.972;7.856;2023-05-16T03:00:02;97487.50;;;11.06
24201;BMP280;2801;50.972;7.856;2023-05-16T03:02:31;97485.63;;;11.07
24201;BMP280;2801;50.972;7.856;2023-05-16T03:04:58;97482.59;;;11.08
24201;BMP280;2801;50.972;7.856;2023-05-16T03:07:25;97471.72;;;11.05
24201;BMP280;2801;50.972;7.856;2023-05-16T03:09:52;97487.50;;;11.06
24201;BMP280;2801;50.972;7.856;2023-05-16T03:12:19;97488.94;;;11.04
24201;BMP280;2801;50.972;7.856;2023-05-16T03:14:46;97486.09;;;11.00
24201;BMP280;2801;50.972;7.856;2023-05-16T03:17:13;97493.69;;;10.98
24201;BMP280;2801;50.972;7.856;2023-05-16T03:19:40;97494.34;;;10.95
24201;BMP280;2801;50.972;7.856;2023-05-16T03:22:07;97495.19;;;10.87
24201;BMP280;2801;50.972;7.856;2023-05-16T03:24:34;97505.78;;;10.84
24201;BMP280;2801;50.972;7.856;2023-05-16T03:27:01;97503.41;;;10.82
24201;BMP280;2801;50.972;7.856;2023-05-16T03:29:30;97509.09;;;10.81
24201;BMP280;2801;50.972;7.856;2023-05-16T03:31:57;97499.81;;;10.78
24201;BMP280;2801;50.972;7.856;2023-05-16T03:34:24;97508.19;;;10.77
24201;BMP280;2801;50.972;7.856;2023-05-16T03:36:51;97508.19;;;10.77
24201;BMP280;2801;50.972;7.856;2023-05-16T03:39:18;97506.78;;;10.71
24201;BMP280;2801;50.972;7.856;2023-05-16T03:41:45;97511.53;;;10.65
24201;BMP280;2801;50.972;7.856;2023-05-16T03:44:12;97512.44;;;10.69
24201;BMP280;2801;50.972;7.856;2023-05-16T03:46:39;97517.38;;;10.67
24201;BMP280;2801;50.972;7.856;2023-05-16T03:49:06;97522.06;;;10.70
24201;BMP280;2801;50.972;7.856;2023-05-16T03:51:33;97521.13;;;10.66
24201;BMP280;2801;50.972;7.856;2023-05-16T03:54:00;97525.41;;;10.67
24201;BMP280;2801;50.972;7.856;2023-05-16T03:56:26;97532.38;;;10.51
24201;BMP280;2801;50.972;7.856;2023-05-16T03:58:53;97535.53;;;10.53
24201;BMP280;2801;50.972;7.856;2023-05-16T04:01:20;97536.81;;;10.47
24201;BMP280;2801;50.972;7.856;2023-05-16T04:03:48;97542.66;;;10.41
24201;BMP280;2801;50.972;7.856;2023-05-16T04:06:16;97551.03;;;10.39
24201;BMP280;2801;50.972;7.856;2023-05-16T04:08:43;97548.53;;;10.26
24201;BMP280;2801;50.972;7.856;2023-05-16T04:11:10;97557.19;;;10.23
24201;BMP280;2801;50.972;7.856;2023-05-16T04:13:37;97577.06;;;10.13
24201;BMP280;2801;50.972;7.856;2023-05-16T04:16:05;97567.16;;;10.05
24201;BMP280;2801;50.972;7.856;2023-05-16T04:18:33;97581.94;;;10.03
24201;BMP280;2801;50.972;7.856;2023-05-16T04:21:00;97581.78;;;9.99
24201;BMP280;2801;50.972;7.856;2023-05-16T04:23:27;97595.03;;;9.96
24201;BMP280;2801;50.972;7.856;2023-05-16T04:25:54;97593.63;;;9.90
24201;BMP280;2801;50.972;7.856;2023-05-16T04:28:22;97600.53;;;9.82
24201;BMP280;2801;50.972;7.856;2023-05-16T04:30:49;97599.59;;;9.78
24201;BMP280;2801;50.972;7.856;2023-05-16T04:33:17;97601.63;;;9.73
24201;BMP280;2801;50.972;7.856;2023-05-16T04:35:44;97602.41;;;9.65
24201;BMP280;2801;50.972;7.856;2023-05-16T04:38:11;97605.69;;;9.62
24201;BMP280;2801;50.972;7.856;2023-05-16T04:40:38;97603.94;;;9.57
24201;BMP280;2801;50.972;7.856;2023-05-16T04:43:07;97606.78;;;9.52
24201;BMP280;2801;50.972;7.856;2023-05-16T04:45:34;97614.19;;;9.47
24201;BMP280;2801;50.972;7.856;2023-05-16T04:48:03;97621.25;;;9.43
24201;BMP280;2801;50.972;7.856;2023-05-16T04:50:30;97622.66;;;9.40
24201;BMP280;2801;50.972;7.856;2023-05-16T04:52:57;97621.22;;;9.34
24201;BMP280;2801;50.972;7.856;2023-05-16T04:55:24;97619.47;;;9.21
24201;BMP280;2801;50.972;7.856;2023-05-16T04:57:51;97637.13;;;9.31
24201;BMP280;2801;50.972;7.856;2023-05-16T05:00:19;97632.69;;;9.26
24201;BMP280;2801;50.972;7.856;2023-05-16T05:02:46;97641.03;;;9.25
24201;BMP280;2801;50.972;7.856;2023-05-16T05:05:13;97627.16;;;9.14
24201;BMP280;2801;50.972;7.856;2023-05-16T05:07:40;97641.31;;;9.15
24201;BMP280;2801;50.972;7.856;2023-05-16T05:10:07;97640.16;;;9.07
24201;BMP280;2801;50.972;7.856;2023-05-16T05:12:35;97648.50;;;9.06
24201;BMP280;2801;50.972;7.856;2023-05-16T05:15:03;97647.88;;;9.09
24201;BMP280;2801;50.972;7.856;2023-05-16T05:17:30;97668.47;;;9.08
24201;BMP280;2801;50.972;7.856;2023-05-16T05:19:57;97663.47;;;9.15
24201;BMP280;2801;50.972;7.856;2023-05-16T05:22:27;97656.41;;;9.11
24201;BMP280;2801;50.972;7.856;2023-05-16T05:24:54;97663.63;;;9.10
24201;BMP280;2801;50.972;7.856;2023-05-16T05:27:21;97673.38;;;9.06
24201;BMP280;2801;50.972;7.856;2023-05-16T05:29:48;97675.53;;;9.04
24201;BMP280;2801;50.972;7.856;2023-05-16T05:32:15;97679.97;;;9.09
24201;BMP280;2801;50.972;7.856;2023-05-16T05:34:42;97677.47;;;9.12
24201;BMP280;2801;50.972;7.856;2023-05-16T05:37:09;97688.06;;;9.17
24201;BMP280;2801;50.972;7.856;2023-05-16T05:39:36;97687.56;;;9.15
24201;BMP280;2801;50.972;7.856;2023-05-16T05:42:03;97687.19;;;9.08
24201;BMP280;2801;50.972;7.856;2023-05-16T05:44:30;97692.44;;;9.13
24201;BMP280;2801;50.972;7.856;2023-05-16T05:46:57;97692.78;;;9.20
24201;BMP280;2801;50.972;7.856;2023-05-16T05:49:25;97694.66;;;9.20
24201;BMP280;2801;50.972;7.856;2023-05-16T05:51:52;97697.94;;;9.17
24201;BMP280;2801;50.972;7.856;2023-05-16T05:54:20;97697.59;;;9.10
24201;BMP280;2801;50.972;7.856;2023-05-16T05:56:47;97704.97;;;9.04
24201;BMP280;2801;50.972;7.856;2023-05-16T05:59:14;97698.47;;;8.97
24201;BMP280;2801;50.972;7.856;2023-05-16T06:01:41;97714.97;;;8.90
24201;BMP280;2801;50.972;7.856;2023-05-16T06:04:12;97720.56;;;8.80
24201;BMP280;2801;50.972;7.856;2023-05-16T06:06:42;97715.94;;;8.72
24201;BMP280;2801;50.972;7.856;2023-05-16T06:09:09;97720.78;;;8.70
24201;BMP280;2801;50.972;7.856;2023-05-16T06:11:36;97727.53;;;8.68
24201;BMP280;2801;50.972;7.856;2023-05-16T06:14:03;97732.13;;;8.67
24201;BMP280;2801;50.972;7.856;2023-05-16T06:16:30;97736.06;;;8.70
24201;BMP280;2801;50.972;7.856;2023-05-16T06:18:57;97736.16;;;8.65
24201;BMP280;2801;50.972;7.856;2023-05-16T06:21:24;97746.56;;;8.66
24201;BMP280;2801;50.972;7.856;2023-05-16T06:23:51;97751.28;;;8.69
24201;BMP280;2801;50.972;7.856;2023-05-16T06:26:18;97745.53;;;8.76
24201;BMP280;2801;50.972;7.856;2023-05-16T06:28:46;97743.94;;;8.75
24201;BMP280;2801;50.972;7.856;2023-05-16T06:31:12;97745.72;;;8.79
24201;BMP280;2801;50.972;7.856;2023-05-16T06:33:40;97738.72;;;8.70
24201;BMP280;2801;50.972;7.856;2023-05-16T06:36:07;97759.81;;;8.71
24201;BMP280;2801;50.972;7.856;2023-05-16T06:38:34;97760.84;;;8.62
24201;BMP280;2801;50.972;7.856;2023-05-16T06:41:01;97760.13;;;8.70
24201;BMP280;2801;50.972;7.856;2023-05-16T06:43:27;97770.50;;;8.71
24201;BMP280;2801;50.972;7.856;2023-05-16T06:45:54;97776.63;;;8.72
24201;BMP280;2801;50.972;7.856;2023-05-16T06:48:22;97778.81;;;8.70
24201;BMP280;2801;50.972;7.856;2023-05-16T06:50:49;97775.34;;;8.69
24201;BMP280;2801;50.972;7.856;2023-05-16T06:53:18;97781.44;;;8.83
24201;BMP280;2801;50.972;7.856;2023-05-16T06:55:46;97775.75;;;9.29
24201;BMP280;2801;50.972;7.856;2023-05-16T06:58:13;97780.69;;;9.74
24201;BMP280;2801;50.972;7.856;2023-05-16T07:00:40;97778.56;;;10.02
24201;BMP280;2801;50.972;7.856;2023-05-16T07:03:07;97781.25;;;10.02
24201;BMP280;2801;50.972;7.856;2023-05-16T07:05:35;97793.63;;;9.81
24201;BMP280;2801;50.972;7.856;2023-05-16T07:08:02;97795.19;;;9.82
24201;BMP280;2801;50.972;7.856;2023-05-16T07:10:32;97788.41;;;10.15
24201;BMP280;2801;50.972;7.856;2023-05-16T07:12:58;97788.44;;;10.49
24201;BMP280;2801;50.972;7.856;2023-05-16T07:15:27;97789.25;;;10.58
24201;BMP280;2801;50.972;7.856;2023-05-16T07:17:54;97779.78;;;10.94
24201;BMP280;2801;50.972;7.856;2023-05-16T07:20:22;97793.19;;;11.03
24201;BMP280;2801;50.972;7.856;2023-05-16T07:22:49;97796.97;;;11.19
24201;BMP280;2801;50.972;7.856;2023-05-16T07:25:16;97802.59;;;11.43
24201;BMP280;2801;50.972;7.856;2023-05-16T07:27:46;97795.94;;;11.49
24201;BMP280;2801;50.972;7.856;2023-05-16T07:30:13;97787.06;;;11.66
24201;BMP280;2801;50.972;7.856;2023-05-16T07:32:40;97789.75;;;11.66
24201;BMP280;2801;50.972;7.856;2023-05-16T07:35:09;97795.53;;;11.85
24201;BMP280;2801;50.972;7.856;2023-05-16T07:37:36;97787.19;;;12.36
24201;BMP280;2801;50.972;7.856;2023-05-16T07:40:04;97788.13;;;12.81
24201;BMP280;2801;50.972;7.856;2023-05-16T07:42:31;97789.38;;;12.83
24201;BMP280;2801;50.972;7.856;2023-05-16T07:44:58;97786.59;;;12.51
24201;BMP280;2801;50.972;7.856;2023-05-16T07:47:25;97799.19;;;12.18
24201;BMP280;2801;50.972;7.856;2023-05-16T07:49:52;97804.31;;;12.02
24201;BMP280;2801;50.972;7.856;2023-05-16T07:52:19;97800.66;;;12.07
24201;BMP280;2801;50.972;7.856;2023-05-16T07:54:47;97797.53;;;12.25
24201;BMP280;2801;50.972;7.856;2023-05-16T07:57:14;97797.34;;;12.30
24201;BMP280;2801;50.972;7.856;2023-05-16T07:59:42;97802.81;;;12.13
24201;BMP280;2801;50.972;7.856;2023-05-16T08:02:10;97805.78;;;11.91
24201;BMP280;2801;50.972;7.856;2023-05-16T08:04:37;97807.19;;;12.47
24201;BMP280;2801;50.972;7.856;2023-05-16T08:07:04;97802.16;;;12.66
24201;BMP280;2801;50.972;7.856;2023-05-16T08:09:31;97808.47;;;12.90
24201;BMP280;2801;50.972;7.856;2023-05-16T08:11:58;97806.34;;;13.49
24201;BMP280;2801;50.972;7.856;2023-05-16T08:14:30;97803.31;;;13.95
24201;BMP280;2801;50.972;7.856;2023-05-16T08:16:59;97802.59;;;13.98
24201;BMP280;2801;50.972;7.856;2023-05-16T08:19:26;97800.59;;;14.07
24201;BMP280;2801;50.972;7.856;2023-05-16T08:21:54;97801.28;;;14.52
24201;BMP280;2801;50.972;7.856;2023-05-16T08:24:21;97803.88;;;14.88
24201;BMP280;2801;50.972;7.856;2023-05-16T08:26:48;97798.97;;;15.33
24201;BMP280;2801;50.972;7.856;2023-05-16T08:29:15;97799.59;;;15.54
24201;BMP280;2801;50.972;7.856;2023-05-16T08:31:42;97794.19;;;15.70
24201;BMP280;2801;50.972;7.856;2023-05-16T08:34:09;97798.63;;;15.78
24201;BMP280;2801;50.972;7.856;2023-05-16T08:36:37;97797.25;;;15.99
24201;BMP280;2801;50.972;7.856;2023-05-16T08:39:04;97790.09;;;16.22
24201;BMP280;2801;50.972;7.856;2023-05-16T08:41:32;97791.56;;;16.20
24201;BMP280;2801;50.972;7.856;2023-05-16T08:43:59;97780.94;;;16.11
24201;BMP280;2801;50.972;7.856;2023-05-16T08:46:28;97785.91;;;15.78
24201;BMP280;2801;50.972;7.856;2023-05-16T08:48:59;97799.03;;;15.21
24201;BMP280;2801;50.972;7.856;2023-05-16T08:51:32;97792.31;;;14.75
24201;BMP280;2801;50.972;7.856;2023-05-16T08:54:05;97796.91;;;14.35
24201;BMP280;2801;50.972;7.856;2023-05-16T08:56:36;97795.13;;;14.27
24201;BMP280;2801;50.972;7.856;2023-05-16T08:59:03;97801.72;;;14.54
24201;BMP280;2801;50.972;7.856;2023-05-16T09:01:30;97797.53;;;15.08
24201;BMP280;2801;50.972;7.856;2023-05-16T09:03:59;97785.53;;;15.64
24201;BMP280;2801;50.972;7.856;2023-05-16T09:06:27;97780.75;;;16.20
24201;BMP280;2801;50.972;7.856;2023-05-16T09:08:54;97778.00;;;16.51
24201;BMP280;2801;50.972;7.856;2023-05-16T09:11:22;97786.88;;;16.67
24201;BMP280;2801;50.972;7.856;2023-05-16T09:13:49;97787.34;;;16.38
24201;BMP280;2801;50.972;7.856;2023-05-16T09:16:20;97782.66;;;16.04
24201;BMP280;2801;50.972;7.856;2023-05-16T09:19:05;97788.84;;;15.58
24201;BMP280;2801;50.972;7.856;2023-05-16T09:21:34;97786.72;;;15.36
24201;BMP280;2801;50.972;7.856;2023-05-16T09:24:08;97783.09;;;15.16
24201;BMP280;2801;50.972;7.856;2023-05-16T09:26:38;97805.25;;;14.82
24201;BMP280;2801;50.972;7.856;2023-05-16T09:29:12;97800.84;;;14.38
24201;BMP280;2801;50.972;7.856;2023-05-16T09:31:39;97796.56;;;14.25
24201;BMP280;2801;50.972;7.856;2023-05-16T09:34:09;97800.94;;;14.05
24201;BMP280;2801;50.972;7.856;2023-05-16T09:36:37;97804.78;;;14.28
24201;BMP280;2801;50.972;7.856;2023-05-16T09:39:07;97802.56;;;14.70
24201;BMP280;2801;50.972;7.856;2023-05-16T09:41:35;97804.72;;;15.32
24201;BMP280;2801;50.972;7.856;2023-05-16T09:44:05;97777.34;;;15.92
24201;BMP280;2801;50.972;7.856;2023-05-16T09:46:37;97787.97;;;16.31
24201;BMP280;2801;50.972;7.856;2023-05-16T09:49:04;97788.38;;;16.64
24201;BMP280;2801;50.972;7.856;2023-05-16T09:51:32;97786.97;;;16.89
24201;BMP280;2801;50.972;7.856;2023-05-16T09:54:00;97779.63;;;16.90
24201;BMP280;2801;50.972;7.856;2023-05-16T09:56:27;97781.34;;;16.44
24201;BMP280;2801;50.972;7.856;2023-05-16T09:58:55;97802.22;;;15.97
24201;BMP280;2801;50.972;7.856;2023-05-16T10:01:23;97798.47;;;15.71
24201;BMP280;2801;50.972;7.856;2023-05-16T10:03:51;97801.69;;;15.33
24201;BMP280;2801;50.972;7.856;2023-05-16T10:06:18;97814.81;;;14.92
24201;BMP280;2801;50.972;7.856;2023-05-16T10:08:47;97817.69;;;14.59
24201;BMP280;2801;50.972;7.856;2023-05-16T10:11:16;97821.53;;;14.22
24201;BMP280;2801;50.972;7.856;2023-05-16T10:13:44;97818.00;;;13.97
24201;BMP280;2801;50.972;7.856;2023-05-16T10:16:17;97811.25;;;13.79
24201;BMP280;2801;50.972;7.856;2023-05-16T10:18:44;97808.56;;;14.03
24201;BMP280;2801;50.972;7.856;2023-05-16T10:21:16;97814.22;;;14.34
24201;BMP280;2801;50.972;7.856;2023-05-16T10:23:49;97814.19;;;14.58
24201;BMP280;2801;50.972;7.856;2023-05-16T10:26:18;97804.81;;;14.80
24201;BMP280;2801;50.972;7.856;2023-05-16T10:28:47;97790.16;;;14.93
24201;BMP280;2801;50.972;7.856;2023-05-16T10:31:15;97795.50;;;15.33
24201;BMP280;2801;50.972;7.856;2023-05-16T10:33:42;97793.28;;;15.23
24201;BMP280;2801;50.972;7.856;2023-05-16T10:36:11;97796.63;;;15.32
24201;BMP280;2801;50.972;7.856;2023-05-16T10:38:39;97801.81;;;15.37
24201;BMP280;2801;50.972;7.856;2023-05-16T10:41:08;97796.09;;;15.26
24201;BMP280;2801;50.972;7.856;2023-05-16T10:43:35;97794.06;;;15.35
24201;BMP280;2801;50.972;7.856;2023-05-16T10:46:10;97799.53;;;15.39
24201;BMP280;2801;50.972;7.856;2023-05-16T10:48:39;97798.97;;;15.33
24201;BMP280;2801;50.972;7.856;2023-05-16T10:54:09;97794.63;;;15.72
24201;BMP280;2801;50.972;7.856;2023-05-16T10:56:37;97794.72;;;15.91
24201;BMP280;2801;50.972;7.856;2023-05-16T10:59:21;97793.13;;;16.05
24201;BMP280;2801;50.972;7.856;2023-05-16T11:01:55;97785.75;;;16.02
24201;BMP280;2801;50.972;7.856;2023-05-16T11:04:22;97809.91;;;15.95
24201;BMP280;2801;50.972;7.856;2023-05-16T11:06:52;97801.28;;;15.90
24201;BMP280;2801;50.972;7.856;2023-05-16T11:09:23;97801.00;;;15.95
24201;BMP280;2801;50.972;7.856;2023-05-16T11:12:02;97800.66;;;16.12
24201;BMP280;2801;50.972;7.856;2023-05-16T11:14:37;97814.97;;;15.97
24201;BMP280;2801;50.972;7.856;2023-05-16T11:17:20;97800.06;;;15.87
24201;BMP280;2801;50.972;7.856;2023-05-16T11:19:51;97799.94;;;15.68
24201;BMP280;2801;50.972;7.856;2023-05-16T11:29:53;97805.09;;;14.91
24201;BMP280;2801;50.972;7.856;2023-05-16T11:32:22;97808.47;;;15.00
24201;BMP280;2801;50.972;7.856;2023-05-16T11:34:51;97788.72;;;15.11
24201;BMP280;2801;50.972;7.856;2023-05-16T11:37:19;97791.03;;;15.37
24201;BMP280;2801;50.972;7.856;2023-05-16T11:39:46;97810.91;;;15.32
24201;BMP280;2801;50.972;7.856;2023-05-16T11:42:14;97806.06;;;15.10
24201;BMP280;2801;50.972;7.856;2023-05-16T11:44:41;97816.06;;;15.10
24201;BMP280;2801;50.972;7.856;2023-05-16T11:47:08;97809.81;;;14.94
24201;BMP280;2801;50.972;7.856;2023-05-16T11:49:35;97812.81;;;14.77
24201;BMP280;2801;50.972;7.856;2023-05-16T11:52:03;97806.19;;;14.74
24201;BMP280;2801;50.972;7.856;2023-05-16T11:54:30;97807.41;;;15.04
24201;BMP280;2801;50.972;7.856;2023-05-16T11:56:58;97795.25;;;15.10
24201;BMP280;2801;50.972;7.856;2023-05-16T11:59:25;97812.81;;;15.16
24201;BMP280;2801;50.972;7.856;2023-05-16T12:01:52;97822.31;;;14.98
24201;BMP280;2801;50.972;7.856;2023-05-16T12:04:19;97810.91;;;15.05
24201;BMP280;2801;50.972;7.856;2023-05-16T12:06:58;97790.69;;;15.26
24201;BMP280;2801;50.972;7.856;2023-05-16T12:09:26;97809.44;;;15.62
24201;BMP280;2801;50.972;7.856;2023-05-16T12:11:53;97795.06;;;15.74
24201;BMP280;2801;50.972;7.856;2023-05-16T12:14:21;97801.50;;;15.85
24201;BMP280;2801;50.972;7.856;2023-05-16T12:16:51;97798.47;;;15.86
24201;BMP280;2801;50.972;7.856;2023-05-16T12:19:19;97798.91;;;15.88
24201;BMP280;2801;50.972;7.856;2023-05-16T12:21:46;97798.13;;;15.88
24201;BMP280;2801;50.972;7.856;2023-05-16T12:24:13;97805.34;;;15.84
24201;BMP280;2801;50.972;7.856;2023-05-16T12:26:40;97800.19;;;15.63
24201;BMP280;2801;50.972;7.856;2023-05-16T12:29:09;97800.53;;;15.46
24201;BMP280;2801;50.972;7.856;2023-05-16T12:31:40;97800.25;;;15.24
24201;BMP280;2801;50.972;7.856;2023-05-16T12:34:16;97801.47;;;15.26
24201;BMP280;2801;50.972;7.856;2023-05-16T12:36:43;97788.66;;;15.51
24201;BMP280;2801;50.972;7.856;2023-05-16T12:39:12;97790.19;;;15.79
24201;BMP280;2801;50.972;7.856;2023-05-16T12:41:41;97801.00;;;15.95
24201;BMP280;2801;50.972;7.856;2023-05-16T12:44:14;97792.63;;;16.00
24201;BMP280;2801;50.972;7.856;2023-05-16T12:46:49;97798.31;;;15.95
24201;BMP280;2801;50.972;7.856;2023-05-16T12:49:20;97806.66;;;15.74
24201;BMP280;2801;50.972;7.856;2023-05-16T12:51:53;97803.84;;;15.55
24201;BMP280;2801;50.972;7.856;2023-05-16T12:54:21;97798.72;;;15.66
24201;BMP280;2801;50.972;7.856;2023-05-16T12:56:49;97799.53;;;15.82
24201;BMP280;2801;50.972;7.856;2023-05-16T12:59:15;97795.59;;;15.95
24201;BMP280;2801;50.972;7.856;2023-05-16T13:01:43;97788.06;;;16.19
24201;BMP280;2801;50.972;7.856;2023-05-16T13:04:12;97790.31;;;16.33
24201;BMP280;2801;50.972;7.856;2023-05-16T13:06:44;97790.69;;;16.47
24201;BMP280;2801;50.972;7.856;2023-05-16T13:09:23;97784.31;;;16.74
24201;BMP280;2801;50.972;7.856;2023-05-16T13:11:50;97780.25;;;16.83
24201;BMP280;2801;50.972;7.856;2023-05-16T13:14:18;97787.38;;;16.91
24201;BMP280;2801;50.972;7.856;2023-05-16T13:16:45;97808.22;;;16.72
24201;BMP280;2801;50.972;7.856;2023-05-16T13:19:12;97805.25;;;16.42
24201;BMP280;2801;50.972;7.856;2023-05-16T13:21:39;97808.47;;;16.32
24201;BMP280;2801;50.972;7.856;2023-05-16T13:24:06;97811.34;;;16.39
24201;BMP280;2801;50.972;7.856;2023-05-16T13:26:33;97815.97;;;16.39
24201;BMP280;2801;50.972;7.856;2023-05-16T13:29:00;97832.91;;;16.20
24201;BMP280;2801;50.972;7.856;2023-05-16T13:31:28;97834.47;;;15.90
24201;BMP280;2801;50.972;7.856;2023-05-16T13:33:55;97826.34;;;15.59
24201;BMP280;2801;50.972;7.856;2023-05-16T13:36:22;97842.09;;;15.42
24201;BMP280;2801;50.972;7.856;2023-05-16T13:38:49;97830.81;;;15.12
24201;BMP280;2801;50.972;7.856;2023-05-16T13:41:16;97848.84;;;14.96
24201;BMP280;2801;50.972;7.856;2023-05-16T13:43:43;97841.78;;;14.79
24201;BMP280;2801;50.972;7.856;2023-05-16T13:46:10;97852.41;;;14.60
24201;BMP280;2801;50.972;7.856;2023-05-16T13:48:37;97851.66;;;14.48
24201;BMP280;2801;50.972;7.856;2023-05-16T13:51:04;97856.25;;;14.35
24201;BMP280;2801;50.972;7.856;2023-05-16T13:53:31;97861.41;;;14.28
24201;BMP280;2801;50.972;7.856;2023-05-16T13:55:58;97862.88;;;14.26
24201;BMP280;2801;50.972;7.856;2023-05-16T13:58:25;97860.25;;;14.17
24201;BMP280;2801;50.972;7.856;2023-05-16T14:00:52;97861.59;;;14.11
24201;BMP280;2801;50.972;7.856;2023-05-16T14:03:20;97854.53;;;14.07
24201;BMP280;2801;50.972;7.856;2023-05-16T14:05:48;97873.59;;;14.02
24201;BMP280;2801;50.972;7.856;2023-05-16T14:08:15;97868.34;;;14.05
24201;BMP280;2801;50.972;7.856;2023-05-16T14:10:42;97859.34;;;14.01
24201;BMP280;2801;50.972;7.856;2023-05-16T14:13:09;97875.31;;;14.06
24201;BMP280;2801;50.972;7.856;2023-05-16T14:15:36;97871.50;;;14.19
24201;BMP280;2801;50.972;7.856;2023-05-16T14:18:03;97875.81;;;14.32
24201;BMP280;2801;50.972;7.856;2023-05-16T14:20:30;97869.28;;;14.45
24201;BMP280;2801;50.972;7.856;2023-05-16T14:22:57;97873.78;;;14.65
24201;BMP280;2801;50.972;7.856;2023-05-16T14:25:25;97868.94;;;14.71
24201;BMP280;2801;50.972;7.856;2023-05-16T14:27:52;97863.38;;;14.79
24201;BMP280;2801;50.972;7.856;2023-05-16T14:30:19;97874.97;;;14.80
24201;BMP280;2801;50.972;7.856;2023-05-16T14:32:46;97868.03;;;14.79
24201;BMP280;2801;50.972;7.856;2023-05-16T14:35:13;97857.91;;;14.76
24201;BMP280;2801;50.972;7.856;2023-05-16T14:37:40;97860.13;;;14.86
24201;BMP280;2801;50.972;7.856;2023-05-16T14:40:08;97862.44;;;15.12
24201;BMP280;2801;50.972;7.856;2023-05-16T14:42:35;97865.88;;;15.36
24201;BMP280;2801;50.972;7.856;2023-05-16T14:45:03;97855.84;;;15.37
24201;BMP280;2801;50.972;7.856;2023-05-16T14:47:30;97846.97;;;15.24